sensor_id;sensor_type;location;lat;lon;timestamp;temperature;humidity
41953;DHT22;63613;28.200;112.870;2023-03-19T00:00:18;14.30;66.00
41953;DHT22;63613;28.200;112.870;2023-03-19T00:02:45;14.20;66.10
41953;DHT22;63613;28.200;112.870;2023-03-19T00:05:17;14.30;66.10
41953;DHT22;63613;28.200;112.870;2023-03-19T00:07:44;14.20;66.10
41953;DHT22;63613;28.200;112.870;2023-03-19T00:10:11;14.30;66.20
41953;DHT22;63613;28.200;112.870;2023-03-19T00:12:38;14.20;66.10
41953;DHT22;63613;28.200;112.870;2023-03-19T00:15:05;14.20;66.20
41953;DHT22;63613;28.200;112.870;2023-03-19T00:17:34;14.20;66.20
41953;DHT22;63613;28.200;112.870;2023-03-19T00:20:00;14.30;66.20
41953;DHT22;63613;28.200;112.870;2023-03-19T00:22:27;14.20;66.40
41953;DHT22;63613;28.200;112.870;2023-03-19T00:24:54;14.30;66.40
41953;DHT22;63613;28.200;112.870;2023-03-19T00:27:21;14.30;66.30
41953;DHT22;63613;28.200;112.870;2023-03-19T00:29:48;14.20;66.30
41953;DHT22;63613;28.200;112.870;2023-03-19T00:32:18;14.20;66.20
41953;DHT22;63613;28.200;112.870;2023-03-19T00:34:48;14.20;66.10
41953;DHT22;63613;28.200;112.870;2023-03-19T00:37:16;14.20;65.90
41953;DHT22;63613;28.200;112.870;2023-03-19T00:39:43;14.20;65.90
41953;DHT22;63613;28.200;112.870;2023-03-19T00:42:10;14.20;65.80
41953;DHT22;63613;28.200;112.870;2023-03-19T00:44:37;14.20;65.90
41953;DHT22;63613;28.200;112.870;2023-03-19T00:47:03;14.20;65.90
41953;DHT22;63613;28.200;112.870;2023-03-19T00:49:32;14.20;65.80
41953;DHT22;63613;28.200;112.870;2023-03-19T00:51:58;14.20;65.90
41953;DHT22;63613;28.200;112.870;2023-03-19T00:54:28;14.10;65.90
41953;DHT22;63613;28.200;112.870;2023-03-19T00:56:57;14.20;65.80
41953;DHT22;63613;28.200;112.870;2023-03-19T00:59:24;14.10;65.80
41953;DHT22;63613;28.200;112.870;2023-03-19T01:02:11;14.20;65.70
41953;DHT22;63613;28.200;112.870;2023-03-19T01:04:37;14.20;65.70
41953;DHT22;63613;28.200;112.870;2023-03-19T01:07:04;14.20;65.90
41953;DHT22;63613;28.200;112.870;2023-03-19T01:09:51;14.10;66.00
41953;DHT22;63613;28.200;112.870;2023-03-19T01:12:18;14.20;65.90
41953;DHT22;63613;28.200;112.870;2023-03-19T01:14:45;14.20;65.90
41953;DHT22;63613;28.200;112.870;2023-03-19T01:17:12;14.30;66.00
41953;DHT22;63613;28.200;112.870;2023-03-19T01:19:39;14.20;66.00
41953;DHT22;63613;28.200;112.870;2023-03-19T01:22:06;14.20;66.00
41953;DHT22;63613;28.200;112.870;2023-03-19T01:24:33;14.20;66.00
41953;DHT22;63613;28.200;112.870;2023-03-19T01:27:00;14.20;66.10
41953;DHT22;63613;28.200;112.870;2023-03-19T01:29:27;14.30;66.10
41953;DHT22;63613;28.200;112.870;2023-03-19T01:31:55;14.20;66.10
41953;DHT22;63613;28.200;112.870;2023-03-19T01:34:22;14.30;66.10
41953;DHT22;63613;28.200;112.870;2023-03-19T01:36:49;14.30;66.10
41953;DHT22;63613;28.200;112.870;2023-03-19T01:39:16;14.20;66.10
41953;DHT22;63613;28.200;112.870;2023-03-19T01:41:43;14.30;66.10
41953;DHT22;63613;28.200;112.870;2023-03-19T01:44:31;14.30;66.00
41953;DHT22;63613;28.200;112.870;2023-03-19T01:47:02;14.30;65.70
41953;DHT22;63613;28.200;112.870;2023-03-19T01:49:31;14.30;65.60
41953;DHT22;63613;28.200;112.870;2023-03-19T01:52:01;14.30;65.60
41953;DHT22;63613;28.200;112.870;2023-03-19T01:54:29;14.30;65.60
41953;DHT22;63613;28.200;112.870;2023-03-19T01:57:07;14.30;65.60
41953;DHT22;63613;28.200;112.870;2023-03-19T01:59:43;14.30;65.60
41953;DHT22;63613;28.200;112.870;2023-03-19T02:02:27;14.30;65.50
41953;DHT22;63613;28.200;112.870;2023-03-19T02:05:10;14.30;65.40
41953;DHT22;63613;28.200;112.870;2023-03-19T02:07:39;14.30;65.40
41953;DHT22;63613;28.200;112.870;2023-03-19T02:10:11;14.30;65.40
41953;DHT22;63613;28.200;112.870;2023-03-19T02:12:39;14.30;65.30
41953;DHT22;63613;28.200;112.870;2023-03-19T02:15:06;14.30;65.30
41953;DHT22;63613;28.200;112.870;2023-03-19T02:17:36;14.30;65.40
41953;DHT22;63613;28.200;112.870;2023-03-19T02:20:33;14.30;65.40
41953;DHT22;63613;28.200;112.870;2023-03-19T02:28:18;14.30;65.70
41953;DHT22;63613;28.200;112.870;2023-03-19T02:30:47;14.30;65.70
41953;DHT22;63613;28.200;112.870;2023-03-19T02:33:17;14.30;65.80
41953;DHT22;63613;28.200;112.870;2023-03-19T02:35:46;14.30;65.80
41953;DHT22;63613;28.200;112.870;2023-03-19T02:38:14;14.30;65.90
41953;DHT22;63613;28.200;112.870;2023-03-19T02:40:47;14.30;65.90
41953;DHT22;63613;28.200;112.870;2023-03-19T02:43:34;14.30;66.00
41953;DHT22;63613;28.200;112.870;2023-03-19T02:46:03;14.30;66.00
41953;DHT22;63613;28.200;112.870;2023-03-19T02:48:31;14.30;66.10
41953;DHT22;63613;28.200;112.870;2023-03-19T02:50:58;14.30;66.20
41953;DHT22;63613;28.200;112.870;2023-03-19T02:53:29;14.30;66.20
41953;DHT22;63613;28.200;112.870;2023-03-19T02:55:55;14.40;66.30
41953;DHT22;63613;28.200;112.870;2023-03-19T02:58:22;14.30;66.30
41953;DHT22;63613;28.200;112.870;2023-03-19T03:00:49;14.30;66.30
41953;DHT22;63613;28.200;112.870;2023-03-19T03:03:18;14.30;66.30
41953;DHT22;63613;28.200;112.870;2023-03-19T03:05:44;14.30;66.30
41953;DHT22;63613;28.200;112.870;2023-03-19T03:08:32;14.30;66.20
41953;DHT22;63613;28.200;112.870;2023-03-19T03:10:58;14.30;66.30
41953;DHT22;63613;28.200;112.870;2023-03-19T03:13:28;14.30;66.40
41953;DHT22;63613;28.200;112.870;2023-03-19T03:15:55;14.30;66.50
41953;DHT22;63613;28.200;112.870;2023-03-19T03:18:22;14.30;66.60
41953;DHT22;63613;28.200;112.870;2023-03-19T03:20:48;14.30;66.70
41953;DHT22;63613;28.200;112.870;2023-03-19T03:23:19;14.30;66.80
41953;DHT22;63613;28.200;112.870;2023-03-19T03:25:51;14.40;66.90
41953;DHT22;63613;28.200;112.870;2023-03-19T03:28:18;14.30;67.00
41953;DHT22;63613;28.200;112.870;2023-03-19T03:30:45;14.30;67.00
41953;DHT22;63613;28.200;112.870;2023-03-19T03:33:14;14.40;67.00
41953;DHT22;63613;28.200;112.870;2023-03-19T03:35:42;14.30;67.10
41953;DHT22;63613;28.200;112.870;2023-03-19T03:38:11;14.30;67.10
41953;DHT22;63613;28.200;112.870;2023-03-19T03:40:38;14.40;67.20
41953;DHT22;63613;28.200;112.870;2023-03-19T03:43:04;14.40;67.20
41953;DHT22;63613;28.200;112.870;2023-03-19T03:45:51;14.40;67.20
41953;DHT22;63613;28.200;112.870;2023-03-19T03:48:19;14.40;67.30
41953;DHT22;63613;28.200;112.870;2023-03-19T03:50:47;14.40;67.20
41953;DHT22;63613;28.200;112.870;2023-03-19T03:53:13;14.40;67.30
41953;DHT22;63613;28.200;112.870;2023-03-19T03:55:41;14.40;67.30
41953;DHT22;63613;28.200;112.870;2023-03-19T03:58:09;14.40;67.50
41953;DHT22;63613;28.200;112.870;2023-03-19T04:00:38;14.40;67.50
41953;DHT22;63613;28.200;112.870;2023-03-19T04:03:05;14.40;67.50
41953;DHT22;63613;28.200;112.870;2023-03-19T04:05:32;14.40;67.70
41953;DHT22;63613;28.200;112.870;2023-03-19T04:08:02;14.40;67.90
41953;DHT22;63613;28.200;112.870;2023-03-19T04:10:29;14.40;67.90
41953;DHT22;63613;28.200;112.870;2023-03-19T04:12:56;14.40;68.10
41953;DHT22;63613;28.200;112.870;2023-03-19T04:15:23;14.50;68.10
41953;DHT22;63613;28.200;112.870;2023-03-19T04:17:50;14.50;68.20
41953;DHT22;63613;28.200;112.870;2023-03-19T04:20:20;14.40;68.20
41953;DHT22;63613;28.200;112.870;2023-03-19T04:22:48;14.50;68.30
41953;DHT22;63613;28.200;112.870;2023-03-19T04:25:15;14.50;68.40
41953;DHT22;63613;28.200;112.870;2023-03-19T04:27:42;14.60;68.30
41953;DHT22;63613;28.200;112.870;2023-03-19T04:30:13;14.50;68.30
41953;DHT22;63613;28.200;112.870;2023-03-19T04:32:40;14.60;68.30
41953;DHT22;63613;28.200;112.870;2023-03-19T04:35:09;14.60;68.30
41953;DHT22;63613;28.200;112.870;2023-03-19T04:37:39;14.60;68.30
41953;DHT22;63613;28.200;112.870;2023-03-19T04:40:06;14.60;68.30
41953;DHT22;63613;28.200;112.870;2023-03-19T04:42:33;14.60;68.40
41953;DHT22;63613;28.200;112.870;2023-03-19T04:45:00;14.60;68.30
41953;DHT22;63613;28.200;112.870;2023-03-19T04:47:27;14.60;68.20
41953;DHT22;63613;28.200;112.870;2023-03-19T04:49:57;14.60;68.30
41953;DHT22;63613;28.200;112.870;2023-03-19T04:52:23;14.60;68.30
41953;DHT22;63613;28.200;112.870;2023-03-19T04:54:51;14.60;68.30
41953;DHT22;63613;28.200;112.870;2023-03-19T04:57:19;14.60;68.30
41953;DHT22;63613;28.200;112.870;2023-03-19T04:59:46;14.60;68.30
41953;DHT22;63613;28.200;112.870;2023-03-19T05:02:14;14.60;68.30
41953;DHT22;63613;28.200;112.870;2023-03-19T05:04:44;14.60;68.20
41953;DHT22;63613;28.200;112.870;2023-03-19T05:07:31;14.60;68.10
41953;DHT22;63613;28.200;112.870;2023-03-19T05:09:58;14.60;68.10
41953;DHT22;63613;28.200;112.870;2023-03-19T05:12:25;14.60;68.10
41953;DHT22;63613;28.200;112.870;2023-03-19T05:14:52;14.50;68.10
41953;DHT22;63613;28.200;112.870;2023-03-19T05:17:20;14.60;68.10
41953;DHT22;63613;28.200;112.870;2023-03-19T05:19:49;14.60;68.20
41953;DHT22;63613;28.200;112.870;2023-03-19T05:22:16;14.60;68.20
41953;DHT22;63613;28.200;112.870;2023-03-19T05:24:45;14.60;68.40
41953;DHT22;63613;28.200;112.870;2023-03-19T05:27:12;14.50;68.40
41953;DHT22;63613;28.200;112.870;2023-03-19T05:29:39;14.50;68.50
41953;DHT22;63613;28.200;112.870;2023-03-19T05:32:19;14.50;68.50
41953;DHT22;63613;28.200;112.870;2023-03-19T05:34:50;14.50;68.20
41953;DHT22;63613;28.200;112.870;2023-03-19T05:37:18;14.40;67.70
41953;DHT22;63613;28.200;112.870;2023-03-19T05:39:53;14.30;67.40
41953;DHT22;63613;28.200;112.870;2023-03-19T05:42:20;14.30;67.70
41953;DHT22;63613;28.200;112.870;2023-03-19T05:44:49;14.20;67.80
41953;DHT22;63613;28.200;112.870;2023-03-19T05:47:16;14.10;67.80
41953;DHT22;63613;28.200;112.870;2023-03-19T05:49:43;14.10;67.80
41953;DHT22;63613;28.200;112.870;2023-03-19T05:52:11;14.10;67.80
41953;DHT22;63613;28.200;112.870;2023-03-19T05:54:38;14.20;67.50
41953;DHT22;63613;28.200;112.870;2023-03-19T05:57:06;14.20;67.40
41953;DHT22;63613;28.200;112.870;2023-03-19T05:59:33;14.20;67.50
41953;DHT22;63613;28.200;112.870;2023-03-19T06:02:00;14.30;67.50
41953;DHT22;63613;28.200;112.870;2023-03-19T06:04:29;14.30;67.60
41953;DHT22;63613;28.200;112.870;2023-03-19T06:06:57;14.20;67.90
41953;DHT22;63613;28.200;112.870;2023-03-19T06:09:24;14.30;68.30
41953;DHT22;63613;28.200;112.870;2023-03-19T06:12:18;14.30;68.60
41953;DHT22;63613;28.200;112.870;2023-03-19T06:14:45;14.30;68.70
41953;DHT22;63613;28.200;112.870;2023-03-19T06:17:13;14.30;69.10
41953;DHT22;63613;28.200;112.870;2023-03-19T06:19:40;14.20;69.10
41953;DHT22;63613;28.200;112.870;2023-03-19T06:22:08;14.30;69.30
41953;DHT22;63613;28.200;112.870;2023-03-19T06:24:37;14.30;69.30
41953;DHT22;63613;28.200;112.870;2023-03-19T06:27:04;14.30;69.40
41953;DHT22;63613;28.200;112.870;2023-03-19T06:29:54;14.30;69.50
41953;DHT22;63613;28.200;112.870;2023-03-19T06:32:23;14.30;69.80
41953;DHT22;63613;28.200;112.870;2023-03-19T06:34:50;14.30;69.90
41953;DHT22;63613;28.200;112.870;2023-03-19T06:37:17;14.30;70.20
41953;DHT22;63613;28.200;112.870;2023-03-19T06:39:47;14.30;70.60
41953;DHT22;63613;28.200;112.870;2023-03-19T06:42:14;14.30;70.70
41953;DHT22;63613;28.200;112.870;2023-03-19T06:44:41;14.30;70.90
41953;DHT22;63613;28.200;112.870;2023-03-19T06:47:08;14.30;71.10
41953;DHT22;63613;28.200;112.870;2023-03-19T06:49:35;14.30;71.30
41953;DHT22;63613;28.200;112.870;2023-03-19T06:52:04;14.30;71.20
41953;DHT22;63613;28.200;112.870;2023-03-19T06:54:34;14.30;71.40
41953;DHT22;63613;28.200;112.870;2023-03-19T06:57:21;14.30;71.30
41953;DHT22;63613;28.200;112.870;2023-03-19T06:59:55;14.30;71.30
41953;DHT22;63613;28.200;112.870;2023-03-19T07:02:27;14.30;71.30
41953;DHT22;63613;28.200;112.870;2023-03-19T07:04:54;14.30;71.30
41953;DHT22;63613;28.200;112.870;2023-03-19T07:07:21;14.30;71.30
41953;DHT22;63613;28.200;112.870;2023-03-19T07:09:49;14.30;71.20
41953;DHT22;63613;28.200;112.870;2023-03-19T07:12:18;14.30;71.30
41953;DHT22;63613;28.200;112.870;2023-03-19T07:14:47;14.30;71.30
41953;DHT22;63613;28.200;112.870;2023-03-19T07:17:17;14.30;71.20
41953;DHT22;63613;28.200;112.870;2023-03-19T07:19:44;14.30;71.30
41953;DHT22;63613;28.200;112.870;2023-03-19T07:22:11;14.30;71.30
41953;DHT22;63613;28.200;112.870;2023-03-19T07:24:37;14.30;71.30
41953;DHT22;63613;28.200;112.870;2023-03-19T07:27:04;14.30;71.30
41953;DHT22;63613;28.200;112.870;2023-03-19T07:29:51;14.30;71.30
41953;DHT22;63613;28.200;112.870;2023-03-19T07:32:21;14.30;71.30
41953;DHT22;63613;28.200;112.870;2023-03-19T07:34:53;14.30;71.20
41953;DHT22;63613;28.200;112.870;2023-03-19T07:37:20;14.30;71.30
41953;DHT22;63613;28.200;112.870;2023-03-19T07:39:47;14.30;71.20
41953;DHT22;63613;28.200;112.870;2023-03-19T07:42:14;14.30;71.20
41953;DHT22;63613;28.200;112.870;2023-03-19T07:45:02;14.30;71.00
41953;DHT22;63613;28.200;112.870;2023-03-19T07:47:31;14.30;71.00
41953;DHT22;63613;28.200;112.870;2023-03-19T07:49:58;14.30;71.00
41953;DHT22;63613;28.200;112.870;2023-03-19T07:52:25;14.30;71.00
41953;DHT22;63613;28.200;112.870;2023-03-19T07:54:52;14.30;71.00
41953;DHT22;63613;28.200;112.870;2023-03-19T07:57:21;14.30;71.00
41953;DHT22;63613;28.200;112.870;2023-03-19T07:59:50;14.30;71.00
41953;DHT22;63613;28.200;112.870;2023-03-19T08:02:18;14.30;70.50
41953;DHT22;63613;28.200;112.870;2023-03-19T08:04:45;14.30;70.40
41953;DHT22;63613;28.200;112.870;2023-03-19T08:07:12;14.30;70.50
41953;DHT22;63613;28.200;112.870;2023-03-19T08:09:39;14.30;70.50
41953;DHT22;63613;28.200;112.870;2023-03-19T08:12:07;14.30;70.50
41953;DHT22;63613;28.200;112.870;2023-03-19T08:14:34;14.30;70.60
41953;DHT22;63613;28.200;112.870;2023-03-19T08:17:05;14.30;70.60
41953;DHT22;63613;28.200;112.870;2023-03-19T08:19:31;14.40;70.60
41953;DHT22;63613;28.200;112.870;2023-03-19T08:22:00;14.40;70.60
41953;DHT22;63613;28.200;112.870;2023-03-19T08:24:27;14.40;70.70
41953;DHT22;63613;28.200;112.870;2023-03-19T08:26:55;14.40;70.80
41953;DHT22;63613;28.200;112.870;2023-03-19T08:29:22;14.40;70.90
41953;DHT22;63613;28.200;112.870;2023-03-19T08:31:53;14.40;71.00
41953;DHT22;63613;28.200;112.870;2023-03-19T08:34:21;14.40;71.20
41953;DHT22;63613;28.200;112.870;2023-03-19T08:36:49;14.40;71.20
41953;DHT22;63613;28.200;112.870;2023-03-19T08:39:16;14.40;71.30
41953;DHT22;63613;28.200;112.870;2023-03-19T08:41:43;14.40;71.30
41953;DHT22;63613;28.200;112.870;2023-03-19T08:44:16;14.30;71.50
41953;DHT22;63613;28.200;112.870;2023-03-19T08:46:43;14.30;71.60
41953;DHT22;63613;28.200;112.870;2023-03-19T08:49:12;14.30;71.60
41953;DHT22;63613;28.200;112.870;2023-03-19T08:51:39;14.40;71.70
41953;DHT22;63613;28.200;112.870;2023-03-19T08:54:06;14.40;71.80
41953;DHT22;63613;28.200;112.870;2023-03-19T08:56:37;14.40;71.90
41953;DHT22;63613;28.200;112.870;2023-03-19T08:59:04;14.40;71.90
41953;DHT22;63613;28.200;112.870;2023-03-19T09:01:31;14.30;71.90
41953;DHT22;63613;28.200;112.870;2023-03-19T09:03:58;14.40;71.90
41953;DHT22;63613;28.200;112.870;2023-03-19T09:06:25;14.40;71.90
41953;DHT22;63613;28.200;112.870;2023-03-19T09:08:52;14.30;72.00
41953;DHT22;63613;28.200;112.870;2023-03-19T09:11:19;14.30;72.00
41953;DHT22;63613;28.200;112.870;2023-03-19T09:13:49;14.40;71.90
41953;DHT22;63613;28.200;112.870;2023-03-19T09:16:17;14.40;71.90
41953;DHT22;63613;28.200;112.870;2023-03-19T09:18:44;14.30;72.00
41953;DHT22;63613;28.200;112.870;2023-03-19T09:21:31;14.30;72.10
41953;DHT22;63613;28.200;112.870;2023-03-19T09:23:58;14.40;72.10
41953;DHT22;63613;28.200;112.870;2023-03-19T09:26:26;14.40;72.10
41953;DHT22;63613;28.200;112.870;2023-03-19T09:29:02;14.40;72.20
41953;DHT22;63613;28.200;112.870;2023-03-19T09:31:30;14.30;72.10
41953;DHT22;63613;28.200;112.870;2023-03-19T09:33:57;14.30;72.10
41953;DHT22;63613;28.200;112.870;2023-03-19T09:36:24;14.30;72.10
41953;DHT22;63613;28.200;112.870;2023-03-19T09:38:54;14.30;72.10
41953;DHT22;63613;28.200;112.870;2023-03-19T09:44:29;14.30;72.20
41953;DHT22;63613;28.200;112.870;2023-03-19T09:47:07;14.30;72.00
41953;DHT22;63613;28.200;112.870;2023-03-19T09:49:42;14.40;72.20
41953;DHT22;63613;28.200;112.870;2023-03-19T09:54:47;14.40;72.40
41953;DHT22;63613;28.200;112.870;2023-03-19T09:57:18;14.30;72.40
41953;DHT22;63613;28.200;112.870;2023-03-19T09:59:46;14.30;72.40
41953;DHT22;63613;28.200;112.870;2023-03-19T10:02:39;14.30;72.40
41953;DHT22;63613;28.200;112.870;2023-03-19T10:08:29;14.40;72.40
41953;DHT22;63613;28.200;112.870;2023-03-19T10:16:37;14.40;72.40
41953;DHT22;63613;28.200;112.870;2023-03-19T10:19:05;14.30;72.40
41953;DHT22;63613;28.200;112.870;2023-03-19T10:21:39;14.40;72.30
41953;DHT22;63613;28.200;112.870;2023-03-19T10:24:43;14.40;72.20
41953;DHT22;63613;28.200;112.870;2023-03-19T10:27:28;14.40;72.20
41953;DHT22;63613;28.200;112.870;2023-03-19T10:29:55;14.40;72.10
41953;DHT22;63613;28.200;112.870;2023-03-19T10:35:05;14.40;72.20
41953;DHT22;63613;28.200;112.870;2023-03-19T10:37:33;14.40;72.20
41953;DHT22;63613;28.200;112.870;2023-03-19T10:40:01;14.40;72.30
41953;DHT22;63613;28.200;112.870;2023-03-19T10:45:32;14.40;72.30
41953;DHT22;63613;28.200;112.870;2023-03-19T10:48:00;14.40;72.20
41953;DHT22;63613;28.200;112.870;2023-03-19T10:51:14;14.40;72.20
41953;DHT22;63613;28.200;112.870;2023-03-19T10:55:54;14.40;72.10
41953;DHT22;63613;28.200;112.870;2023-03-19T10:58:26;14.40;72.10
41953;DHT22;63613;28.200;112.870;2023-03-19T11:01:07;14.40;72.20
41953;DHT22;63613;28.200;112.870;2023-03-19T11:03:48;14.40;72.30
41953;DHT22;63613;28.200;112.870;2023-03-19T11:06:27;14.40;72.50
41953;DHT22;63613;28.200;112.870;2023-03-19T11:11:44;14.40;72.60
41953;DHT22;63613;28.200;112.870;2023-03-19T11:14:38;14.40;72.60
41953;DHT22;63613;28.200;112.870;2023-03-19T11:17:28;14.40;72.50
41953;DHT22;63613;28.200;112.870;2023-03-19T11:20:30;14.40;72.50
41953;DHT22;63613;28.200;112.870;2023-03-19T11:22:57;14.40;72.50
41953;DHT22;63613;28.200;112.870;2023-03-19T11:25:54;14.40;72.50
41953;DHT22;63613;28.200;112.870;2023-03-19T11:28:25;14.50;72.40
41953;DHT22;63613;28.200;112.870;2023-03-19T11:34:14;14.40;72.40
41953;DHT22;63613;28.200;112.870;2023-03-19T11:42:32;14.40;72.30
41953;DHT22;63613;28.200;112.870;2023-03-19T11:59:37;14.40;72.90
41953;DHT22;63613;28.200;112.870;2023-03-19T12:16:28;14.40;73.20
41953;DHT22;63613;28.200;112.870;2023-03-19T12:30:41;14.40;74.40
41953;DHT22;63613;28.200;112.870;2023-03-19T12:36:07;14.40;74.60
41953;DHT22;63613;28.200;112.870;2023-03-19T12:38:47;14.50;74.70
41953;DHT22;63613;28.200;112.870;2023-03-19T12:41:24;14.50;75.00
41953;DHT22;63613;28.200;112.870;2023-03-19T12:47:10;14.50;75.20
41953;DHT22;63613;28.200;112.870;2023-03-19T12:49:58;14.50;75.20
41953;DHT22;63613;28.200;112.870;2023-03-19T12:52:40;14.50;75.30
41953;DHT22;63613;28.200;112.870;2023-03-19T12:55:43;14.40;75.30
41953;DHT22;63613;28.200;112.870;2023-03-19T13:01:18;14.40;75.20
41953;DHT22;63613;28.200;112.870;2023-03-19T13:04:09;14.40;74.70
41953;DHT22;63613;28.200;112.870;2023-03-19T13:06:48;14.40;74.40
41953;DHT22;63613;28.200;112.870;2023-03-19T13:12:03;14.40;74.30
41953;DHT22;63613;28.200;112.870;2023-03-19T13:22:50;14.40;74.90
41953;DHT22;63613;28.200;112.870;2023-03-19T13:25:31;14.40;74.80
41953;DHT22;63613;28.200;112.870;2023-03-19T13:28:01;14.40;74.60
41953;DHT22;63613;28.200;112.870;2023-03-19T13:30:33;14.40;74.40
41953;DHT22;63613;28.200;112.870;2023-03-19T13:33:20;14.40;74.30
41953;DHT22;63613;28.200;112.870;2023-03-19T13:35:51;14.40;74.00
41953;DHT22;63613;28.200;112.870;2023-03-19T13:38:43;14.40;73.90
41953;DHT22;63613;28.200;112.870;2023-03-19T13:41:50;14.40;73.70
41953;DHT22;63613;28.200;112.870;2023-03-19T13:44:34;14.40;73.40
41953;DHT22;63613;28.200;112.870;2023-03-19T13:52:49;14.40;73.50
41953;DHT22;63613;28.200;112.870;2023-03-19T13:55:53;14.40;73.20
41953;DHT22;63613;28.200;112.870;2023-03-19T13:58:25;14.40;73.20
41953;DHT22;63613;28.200;112.870;2023-03-19T14:01:34;14.40;73.00
41953;DHT22;63613;28.200;112.870;2023-03-19T14:04:28;14.40;72.80
41953;DHT22;63613;28.200;112.870;2023-03-19T14:07:23;14.30;72.60
41953;DHT22;63613;28.200;112.870;2023-03-19T14:12:39;14.40;72.40
41953;DHT22;63613;28.200;112.870;2023-03-19T14:17:40;14.40;72.20
41953;DHT22;63613;28.200;112.870;2023-03-19T14:29:05;14.30;72.70
41953;DHT22;63613;28.200;112.870;2023-03-19T14:39:45;14.30;73.00
41953;DHT22;63613;28.200;112.870;2023-03-19T14:51:01;14.40;73.50
41953;DHT22;63613;28.200;112.870;2023-03-19T14:56:41;14.30;73.00
41953;DHT22;63613;28.200;112.870;2023-03-19T14:59:10;14.30;72.40
41953;DHT22;63613;28.200;112.870;2023-03-19T15:01:47;14.30;72.30
41953;DHT22;63613;28.200;112.870;2023-03-19T15:04:16;14.30;72.30
41953;DHT22;63613;28.200;112.870;2023-03-19T15:06:56;14.30;72.10
41953;DHT22;63613;28.200;112.870;2023-03-19T15:09:33;14.30;72.40
41953;DHT22;63613;28.200;112.870;2023-03-19T15:17:30;14.30;71.80
41953;DHT22;63613;28.200;112.870;2023-03-19T15:20:00;14.30;71.50
41953;DHT22;63613;28.200;112.870;2023-03-19T15:22:37;14.30;71.40
41953;DHT22;63613;28.200;112.870;2023-03-19T15:25:13;14.30;71.30
41953;DHT22;63613;28.200;112.870;2023-03-19T15:27:42;14.30;71.20
41953;DHT22;63613;28.200;112.870;2023-03-19T15:30:24;14.30;71.20
41953;DHT22;63613;28.200;112.870;2023-03-19T15:32:53;14.30;71.30
41953;DHT22;63613;28.200;112.870;2023-03-19T15:35:28;14.30;71.30
41953;DHT22;63613;28.200;112.870;2023-03-19T15:38:01;14.30;71.30
41953;DHT22;63613;28.200;112.870;2023-03-19T15:40:30;14.30;71.40
41953;DHT22;63613;28.200;112.870;2023-03-19T15:43:00;14.30;71.30
41953;DHT22;63613;28.200;112.870;2023-03-19T15:45:32;14.30;71.70
41953;DHT22;63613;28.200;112.870;2023-03-19T15:48:58;14.30;72.20
41953;DHT22;63613;28.200;112.870;2023-03-19T15:51:06;14.30;72.70
41953;DHT22;63613;28.200;112.870;2023-03-19T15:53:34;14.30;73.10
41953;DHT22;63613;28.200;112.870;2023-03-19T15:56:04;14.30;73.20
41953;DHT22;63613;28.200;112.870;2023-03-19T15:58:40;14.30;73.50
41953;DHT22;63613;28.200;112.870;2023-03-19T16:01:10;14.30;73.90
41953;DHT22;63613;28.200;112.870;2023-03-19T16:03:44;14.30;74.20
41953;DHT22;63613;28.200;112.870;2023-03-19T16:06:21;14.30;74.20
41953;DHT22;63613;28.200;112.870;2023-03-19T16:08:51;14.30;74.40
41953;DHT22;63613;28.200;112.870;2023-03-19T16:11:33;14.30;74.30
41953;DHT22;63613;28.200;112.870;2023-03-19T16:14:23;14.30;74.60
41953;DHT22;63613;28.200;112.870;2023-03-19T16:17:02;14.40;74.60
41953;DHT22;63613;28.200;112.870;2023-03-19T16:19:47;14.30;74.10
41953;DHT22;63613;28.200;112.870;2023-03-19T16:22:20;14.30;74.10
41953;DHT22;63613;28.200;112.870;2023-03-19T16:24:52;14.30;74.20
41953;DHT22;63613;28.200;112.870;2023-03-19T16:27:34;14.30;74.10
41953;DHT22;63613;28.200;112.870;2023-03-19T16:30:19;14.30;74.30
41953;DHT22;63613;28.200;112.870;2023-03-19T16:33:04;14.30;74.00
41953;DHT22;63613;28.200;112.870;2023-03-19T16:35:33;14.30;73.50
41953;DHT22;63613;28.200;112.870;2023-03-19T16:38:22;14.30;73.10
41953;DHT22;63613;28.200;112.870;2023-03-19T16:41:15;14.30;72.90
41953;DHT22;63613;28.200;112.870;2023-03-19T16:43:46;14.30;72.50
41953;DHT22;63613;28.200;112.870;2023-03-19T16:46:15;14.30;72.20
41953;DHT22;63613;28.200;112.870;2023-03-19T16:48:47;14.30;72.20
41953;DHT22;63613;28.200;112.870;2023-03-19T16:51:16;14.20;72.50
41953;DHT22;63613;28.200;112.870;2023-03-19T16:53:44;14.30;72.40
41953;DHT22;63613;28.200;112.870;2023-03-19T16:56:15;14.30;72.30
41953;DHT22;63613;28.200;112.870;2023-03-19T16:59:02;14.30;72.60
41953;DHT22;63613;28.200;112.870;2023-03-19T17:01:29;14.30;72.90
41953;DHT22;63613;28.200;112.870;2023-03-19T17:03:56;14.30;72.70
41953;DHT22;63613;28.200;112.870;2023-03-19T17:06:24;14.20;72.50
41953;DHT22;63613;28.200;112.870;2023-03-19T17:08:54;14.30;72.50
41953;DHT22;63613;28.200;112.870;2023-03-19T17:11:27;14.20;72.60
41953;DHT22;63613;28.200;112.870;2023-03-19T17:13:56;14.20;72.70
41953;DHT22;63613;28.200;112.870;2023-03-19T17:16:27;14.20;72.80
41953;DHT22;63613;28.200;112.870;2023-03-19T17:18:55;14.20;73.00
41953;DHT22;63613;28.200;112.870;2023-03-19T17:21:29;14.20;73.10
41953;DHT22;63613;28.200;112.870;2023-03-19T17:23:57;14.30;73.20
41953;DHT22;63613;28.200;112.870;2023-03-19T17:26:27;14.30;73.30
41953;DHT22;63613;28.200;112.870;2023-03-19T17:29:14;14.30;72.90
41953;DHT22;63613;28.200;112.870;2023-03-19T17:31:40;14.20;72.60
41953;DHT22;63613;28.200;112.870;2023-03-19T17:34:20;14.20;72.70
41953;DHT22;63613;28.200;112.870;2023-03-19T17:36:54;14.20;72.70
41953;DHT22;63613;28.200;112.870;2023-03-19T17:39:25;14.20;72.70
41953;DHT22;63613;28.200;112.870;2023-03-19T17:41:58;14.20;72.80
41953;DHT22;63613;28.200;112.870;2023-03-19T17:44:25;14.20;73.00
41953;DHT22;63613;28.200;112.870;2023-03-19T17:46:53;14.20;73.20
41953;DHT22;63613;28.200;112.870;2023-03-19T17:49:28;14.20;73.30
41953;DHT22;63613;28.200;112.870;2023-03-19T17:51:59;14.20;73.40
41953;DHT22;63613;28.200;112.870;2023-03-19T17:54:26;14.20;73.50
41953;DHT22;63613;28.200;112.870;2023-03-19T17:56:54;14.20;73.60